Watertown, SD

1:36 AM CST on March 06, 2015 (GMT -0600)
East side of Watertown, SD | Change Station
CLOSE
Current Station
Personal Weather Station
Location: Watertown, SD
Elevation: 1732 ft
Nearby Weather Stations

Elev 1732 ft 44.89 °N, 97.09 °W | Updated 11 minutes ago

Clear
Clear
10.2 °F
Feels Like 10 °F
N
2.2
Wind Variable Wind from SW

Today
High -- | Low -- °F
--% Chance of Precip.
Yesterday
High -- | Low -- °F
Precip. -- in
6:57 AM 6:22 PM
Full, 100% visible
Pressure 30.16 in
Visibility 10.0 miles
Clouds Clear
Windchill 10 °F
Dew Point 6 °F
Humidity 82%
Rainfall in
Snow Depth Not available.
UV 0 out of 12
Pollen .50 out of 12
Air Quality Not available.
Flu Activity Not available.
METAR KATY 060653Z AUTO 16007KT 10SM CLR M11/M16 A3006 RMK AO2 SLP213 T11111156

More Conditions Fewer Conditions

Pressure 30.16 in
Visibility 10.0 miles
Clouds Clear
Windchill 10 °F
Dew Point 6 °F
Humidity 82%
Rainfall in
Snow Depth Not available.
UV 0 out of 12
Pollen .50 out of 12
Air Quality Not available.
Flu Activity Not available.
METAR KATY 060653Z AUTO 16007KT 10SM CLR M11/M16 A3006 RMK AO2 SLP213 T11111156

More Conditions Fewer Conditions

10-Day Weather Forecast

Almanac

Astronomy

Mar. 06, 2015 Rise Set
Actual Time
Civil Twilight
Nautical Twilight
Astronomical Twilight
Moon
Length of Visible Light
Length of Day
Tomorrow will be .
, % of the Moon is Illuminated

Today's Extremes

State Highs State Lows

Community

WunderPhotos

Upload Photos

1,803,199 photos uploaded!

WunderBlogs® & News

Nearby

Air Quality

  Air Quality AQ Index Pollutant
Not available.

Snow Depth

Station Depth Elevation

Earthquake Activity

City Distance Mag. Time & Date
Minimum magnitude displayed is 2.5.

Coastal Water Temperatures

Place Temperature

Nearby Weather Stations